Terminal Aerodrome Forecast
Issued by NWS Norman, OK

Home | Current Version | Previous Version | Text Only | Print | Product List | Glossary On
Versions: 1 2 3 4 5 6 7 8 9 10 11 12
000
FTUS44 KOUN 160520
TAFOKC
TAF
KOKC 160520Z 1606/1706 19011KT P6SM SKC
     FM161500 19016G24KT P6SM SCT250
     FM162000 19020G28KT P6SM FEW150 BKN250
     FM170300 17013KT P6SM SCT050 BKN100 PROB30 1703/1706 -RA
      BKN050=

USA.gov is the U.S. government's official web portal to all federal, state and local government web resources and services.